sensor_id;sensor_type;location;lat;lon;timestamp;temperature;humidity
33955;DHT22;20233;50.804;7.126;2022-12-08T00:00:55;5.70;99.90
33955;DHT22;20233;50.804;7.126;2022-12-08T00:03:21;5.80;99.90
33955;DHT22;20233;50.804;7.126;2022-12-08T00:05:48;5.80;99.90
33955;DHT22;20233;50.804;7.126;2022-12-08T00:08:33;5.80;99.90
33955;DHT22;20233;50.804;7.126;2022-12-08T00:11:18;5.80;99.90
33955;DHT22;20233;50.804;7.126;2022-12-08T00:13:45;5.80;99.90
33955;DHT22;20233;50.804;7.126;2022-12-08T00:16:11;5.80;99.90
33955;DHT22;20233;50.804;7.126;2022-12-08T00:18:37;5.80;99.90
33955;DHT22;20233;50.804;7.126;2022-12-08T00:21:04;5.80;99.90
33955;DHT22;20233;50.804;7.126;2022-12-08T00:23:32;5.80;99.90
33955;DHT22;20233;50.804;7.126;2022-12-08T00:26:03;5.80;99.90
33955;DHT22;20233;50.804;7.126;2022-12-08T00:28:29;5.80;99.90
33955;DHT22;20233;50.804;7.126;2022-12-08T00:30:56;5.80;99.90
33955;DHT22;20233;50.804;7.126;2022-12-08T00:33:23;5.70;99.90
33955;DHT22;20233;50.804;7.126;2022-12-08T00:35:49;5.70;99.90
33955;DHT22;20233;50.804;7.126;2022-12-08T00:38:16;5.70;99.90
33955;DHT22;20233;50.804;7.126;2022-12-08T00:40:46;5.70;99.90
33955;DHT22;20233;50.804;7.126;2022-12-08T00:43:13;5.70;99.90
33955;DHT22;20233;50.804;7.126;2022-12-08T00:45:39;5.70;99.90
33955;DHT22;20233;50.804;7.126;2022-12-08T00:48:06;5.70;99.90
33955;DHT22;20233;50.804;7.126;2022-12-08T00:50:35;5.70;99.90
33955;DHT22;20233;50.804;7.126;2022-12-08T00:53:01;5.70;99.90
33955;DHT22;20233;50.804;7.126;2022-12-08T00:55:28;5.80;99.90
33955;DHT22;20233;50.804;7.126;2022-12-08T00:57:54;5.70;99.90
33955;DHT22;20233;50.804;7.126;2022-12-08T01:00:22;5.70;99.90
33955;DHT22;20233;50.804;7.126;2022-12-08T01:02:49;5.70;99.90
33955;DHT22;20233;50.804;7.126;2022-12-08T01:05:15;5.70;99.90
33955;DHT22;20233;50.804;7.126;2022-12-08T01:07:41;5.70;99.90
33955;DHT22;20233;50.804;7.126;2022-12-08T01:10:07;5.70;99.90
33955;DHT22;20233;50.804;7.126;2022-12-08T01:12:33;5.70;99.90
33955;DHT22;20233;50.804;7.126;2022-12-08T01:14:59;5.60;99.90
33955;DHT22;20233;50.804;7.126;2022-12-08T01:17:26;5.70;99.90
33955;DHT22;20233;50.804;7.126;2022-12-08T01:19:52;5.70;99.90
33955;DHT22;20233;50.804;7.126;2022-12-08T01:22:18;5.70;99.90
33955;DHT22;20233;50.804;7.126;2022-12-08T01:24:44;5.60;99.90
33955;DHT22;20233;50.804;7.126;2022-12-08T01:27:10;5.70;99.90
33955;DHT22;20233;50.804;7.126;2022-12-08T01:29:36;5.70;99.90
33955;DHT22;20233;50.804;7.126;2022-12-08T01:32:03;5.70;99.90
33955;DHT22;20233;50.804;7.126;2022-12-08T01:34:30;5.70;99.90
33955;DHT22;20233;50.804;7.126;2022-12-08T01:36:56;5.70;99.90
33955;DHT22;20233;50.804;7.126;2022-12-08T01:39:22;5.70;99.90
33955;DHT22;20233;50.804;7.126;2022-12-08T01:41:48;5.70;99.90
33955;DHT22;20233;50.804;7.126;2022-12-08T01:46:41;5.80;99.90
33955;DHT22;20233;50.804;7.126;2022-12-08T01:49:18;5.70;99.90
33955;DHT22;20233;50.804;7.126;2022-12-08T01:52:10;5.70;99.90
33955;DHT22;20233;50.804;7.126;2022-12-08T01:54:46;5.70;99.90
33955;DHT22;20233;50.804;7.126;2022-12-08T01:57:20;5.70;99.90
33955;DHT22;20233;50.804;7.126;2022-12-08T01:59:51;5.70;99.90
33955;DHT22;20233;50.804;7.126;2022-12-08T02:02:18;5.80;99.90
33955;DHT22;20233;50.804;7.126;2022-12-08T02:04:44;5.70;99.90
33955;DHT22;20233;50.804;7.126;2022-12-08T02:07:11;5.70;99.90
33955;DHT22;20233;50.804;7.126;2022-12-08T02:09:39;5.70;99.90
33955;DHT22;20233;50.804;7.126;2022-12-08T02:12:05;5.70;99.90
33955;DHT22;20233;50.804;7.126;2022-12-08T02:14:34;5.70;99.90
33955;DHT22;20233;50.804;7.126;2022-12-08T02:17:30;5.70;99.90
33955;DHT22;20233;50.804;7.126;2022-12-08T02:22:39;5.80;99.90
33955;DHT22;20233;50.804;7.126;2022-12-08T02:37:07;5.70;99.90
33955;DHT22;20233;50.804;7.126;2022-12-08T02:45:15;5.80;99.90
33955;DHT22;20233;50.804;7.126;2022-12-08T02:47:42;5.70;99.90
33955;DHT22;20233;50.804;7.126;2022-12-08T02:50:10;5.70;99.90
33955;DHT22;20233;50.804;7.126;2022-12-08T02:52:41;5.70;99.90
33955;DHT22;20233;50.804;7.126;2022-12-08T03:00:29;5.70;99.90
33955;DHT22;20233;50.804;7.126;2022-12-08T03:10:55;5.80;99.90
33955;DHT22;20233;50.804;7.126;2022-12-08T03:13:37;5.80;99.90
33955;DHT22;20233;50.804;7.126;2022-12-08T03:16:07;5.90;99.90
33955;DHT22;20233;50.804;7.126;2022-12-08T03:18:38;5.90;99.90
33955;DHT22;20233;50.804;7.126;2022-12-08T03:21:08;5.90;99.90
33955;DHT22;20233;50.804;7.126;2022-12-08T03:23:36;5.90;99.90
33955;DHT22;20233;50.804;7.126;2022-12-08T03:26:12;5.90;99.90
33955;DHT22;20233;50.804;7.126;2022-12-08T03:28:41;5.90;99.90
33955;DHT22;20233;50.804;7.126;2022-12-08T03:31:11;5.90;99.90
33955;DHT22;20233;50.804;7.126;2022-12-08T03:33:42;5.90;99.90
33955;DHT22;20233;50.804;7.126;2022-12-08T03:36:09;5.90;99.90
33955;DHT22;20233;50.804;7.126;2022-12-08T03:38:41;5.90;99.90
33955;DHT22;20233;50.804;7.126;2022-12-08T03:41:08;5.90;99.90
33955;DHT22;20233;50.804;7.126;2022-12-08T03:43:51;5.80;99.90
33955;DHT22;20233;50.804;7.126;2022-12-08T03:46:19;5.80;99.90
33955;DHT22;20233;50.804;7.126;2022-12-08T03:48:47;5.90;99.90
33955;DHT22;20233;50.804;7.126;2022-12-08T03:51:13;5.90;99.90
33955;DHT22;20233;50.804;7.126;2022-12-08T03:53:40;5.90;99.90
33955;DHT22;20233;50.804;7.126;2022-12-08T03:56:22;5.90;99.90
33955;DHT22;20233;50.804;7.126;2022-12-08T03:58:49;5.80;99.90
33955;DHT22;20233;50.804;7.126;2022-12-08T04:01:16;5.80;99.90
33955;DHT22;20233;50.804;7.126;2022-12-08T04:03:46;5.90;99.90
33955;DHT22;20233;50.804;7.126;2022-12-08T04:06:13;5.90;99.90
33955;DHT22;20233;50.804;7.126;2022-12-08T04:08:40;5.80;99.90
33955;DHT22;20233;50.804;7.126;2022-12-08T04:11:08;5.80;99.90
33955;DHT22;20233;50.804;7.126;2022-12-08T04:13:35;5.80;99.90
33955;DHT22;20233;50.804;7.126;2022-12-08T04:16:03;5.80;99.90
33955;DHT22;20233;50.804;7.126;2022-12-08T04:18:31;5.90;99.90
33955;DHT22;20233;50.804;7.126;2022-12-08T04:20:57;5.80;99.90
33955;DHT22;20233;50.804;7.126;2022-12-08T04:23:24;5.80;99.90
33955;DHT22;20233;50.804;7.126;2022-12-08T04:25:51;5.80;99.90
33955;DHT22;20233;50.804;7.126;2022-12-08T04:28:18;5.80;99.90
33955;DHT22;20233;50.804;7.126;2022-12-08T04:30:44;5.80;99.90
33955;DHT22;20233;50.804;7.126;2022-12-08T04:33:12;5.80;99.90
33955;DHT22;20233;50.804;7.126;2022-12-08T04:35:38;5.80;99.90
33955;DHT22;20233;50.804;7.126;2022-12-08T04:38:04;5.80;99.90
33955;DHT22;20233;50.804;7.126;2022-12-08T04:40:30;5.80;99.90
33955;DHT22;20233;50.804;7.126;2022-12-08T04:42:58;5.70;99.90
33955;DHT22;20233;50.804;7.126;2022-12-08T04:45:26;5.80;99.90
33955;DHT22;20233;50.804;7.126;2022-12-08T04:47:53;5.90;99.90
33955;DHT22;20233;50.804;7.126;2022-12-08T04:50:19;5.90;99.90
33955;DHT22;20233;50.804;7.126;2022-12-08T04:52:46;5.90;99.90
33955;DHT22;20233;50.804;7.126;2022-12-08T04:55:12;5.90;99.90
33955;DHT22;20233;50.804;7.126;2022-12-08T04:57:38;5.90;99.90
33955;DHT22;20233;50.804;7.126;2022-12-08T05:00:06;5.80;99.90
33955;DHT22;20233;50.804;7.126;2022-12-08T05:02:32;5.70;99.90
33955;DHT22;20233;50.804;7.126;2022-12-08T05:04:58;5.70;99.90
33955;DHT22;20233;50.804;7.126;2022-12-08T05:07:24;5.80;99.90
33955;DHT22;20233;50.804;7.126;2022-12-08T05:09:51;5.60;99.90
33955;DHT22;20233;50.804;7.126;2022-12-08T05:12:17;5.70;99.90
33955;DHT22;20233;50.804;7.126;2022-12-08T05:14:45;5.70;99.90
33955;DHT22;20233;50.804;7.126;2022-12-08T05:17:11;5.80;99.90
33955;DHT22;20233;50.804;7.126;2022-12-08T05:19:37;5.80;99.90
33955;DHT22;20233;50.804;7.126;2022-12-08T05:22:04;5.70;99.90
33955;DHT22;20233;50.804;7.126;2022-12-08T05:24:31;5.70;99.90
33955;DHT22;20233;50.804;7.126;2022-12-08T05:26:57;5.50;99.90
33955;DHT22;20233;50.804;7.126;2022-12-08T05:29:24;5.60;99.90
33955;DHT22;20233;50.804;7.126;2022-12-08T05:31:50;5.50;99.90
33955;DHT22;20233;50.804;7.126;2022-12-08T05:34:16;5.60;99.90
33955;DHT22;20233;50.804;7.126;2022-12-08T05:36:42;5.60;99.90
33955;DHT22;20233;50.804;7.126;2022-12-08T05:39:11;5.60;99.90
33955;DHT22;20233;50.804;7.126;2022-12-08T05:41:38;5.60;99.90
33955;DHT22;20233;50.804;7.126;2022-12-08T05:44:06;5.60;99.90
33955;DHT22;20233;50.804;7.126;2022-12-08T05:46:33;5.70;99.90
33955;DHT22;20233;50.804;7.126;2022-12-08T05:49:01;5.70;99.90
33955;DHT22;20233;50.804;7.126;2022-12-08T05:51:28;5.70;99.90
33955;DHT22;20233;50.804;7.126;2022-12-08T05:53:56;5.70;99.90
33955;DHT22;20233;50.804;7.126;2022-12-08T05:56:23;5.70;99.90
33955;DHT22;20233;50.804;7.126;2022-12-08T05:58:49;5.70;99.90
33955;DHT22;20233;50.804;7.126;2022-12-08T06:01:20;5.80;99.90
33955;DHT22;20233;50.804;7.126;2022-12-08T06:03:47;5.80;99.90
33955;DHT22;20233;50.804;7.126;2022-12-08T06:06:13;5.80;99.90
33955;DHT22;20233;50.804;7.126;2022-12-08T06:08:39;5.70;99.90
33955;DHT22;20233;50.804;7.126;2022-12-08T06:11:06;5.70;99.90
33955;DHT22;20233;50.804;7.126;2022-12-08T06:13:33;5.60;99.90
33955;DHT22;20233;50.804;7.126;2022-12-08T06:16:06;5.60;99.90
33955;DHT22;20233;50.804;7.126;2022-12-08T06:18:33;5.60;99.90
33955;DHT22;20233;50.804;7.126;2022-12-08T06:21:04;5.60;99.90
33955;DHT22;20233;50.804;7.126;2022-12-08T06:23:30;5.60;99.90
33955;DHT22;20233;50.804;7.126;2022-12-08T06:26:01;5.70;99.90
33955;DHT22;20233;50.804;7.126;2022-12-08T06:28:31;5.60;99.90
33955;DHT22;20233;50.804;7.126;2022-12-08T06:30:58;5.70;99.90
33955;DHT22;20233;50.804;7.126;2022-12-08T06:33:25;5.60;99.90
33955;DHT22;20233;50.804;7.126;2022-12-08T06:35:52;5.60;99.90
33955;DHT22;20233;50.804;7.126;2022-12-08T06:38:18;5.60;99.90
33955;DHT22;20233;50.804;7.126;2022-12-08T06:40:55;5.70;99.90
33955;DHT22;20233;50.804;7.126;2022-12-08T06:43:22;5.50;99.90
33955;DHT22;20233;50.804;7.126;2022-12-08T06:45:49;5.50;99.90
33955;DHT22;20233;50.804;7.126;2022-12-08T06:48:16;5.50;99.90
33955;DHT22;20233;50.804;7.126;2022-12-08T06:50:43;5.50;99.90
33955;DHT22;20233;50.804;7.126;2022-12-08T06:53:13;5.50;99.90
33955;DHT22;20233;50.804;7.126;2022-12-08T06:55:50;5.40;99.90
33955;DHT22;20233;50.804;7.126;2022-12-08T06:58:16;5.50;99.90
33955;DHT22;20233;50.804;7.126;2022-12-08T07:00:42;5.50;99.90
33955;DHT22;20233;50.804;7.126;2022-12-08T07:03:10;5.50;99.90
33955;DHT22;20233;50.804;7.126;2022-12-08T07:05:37;5.40;99.90
33955;DHT22;20233;50.804;7.126;2022-12-08T07:08:06;5.50;99.90
33955;DHT22;20233;50.804;7.126;2022-12-08T07:10:34;5.50;99.90
33955;DHT22;20233;50.804;7.126;2022-12-08T07:13:00;5.50;99.90
33955;DHT22;20233;50.804;7.126;2022-12-08T07:15:27;5.40;99.90
33955;DHT22;20233;50.804;7.126;2022-12-08T07:17:54;5.50;99.90
33955;DHT22;20233;50.804;7.126;2022-12-08T07:20:20;5.50;99.90
33955;DHT22;20233;50.804;7.126;2022-12-08T07:22:51;5.50;99.90
33955;DHT22;20233;50.804;7.126;2022-12-08T07:25:18;5.50;99.90
33955;DHT22;20233;50.804;7.126;2022-12-08T07:27:45;5.50;99.90
33955;DHT22;20233;50.804;7.126;2022-12-08T07:30:12;5.50;99.90
33955;DHT22;20233;50.804;7.126;2022-12-08T07:32:39;5.40;99.90
33955;DHT22;20233;50.804;7.126;2022-12-08T07:35:06;5.50;99.90
33955;DHT22;20233;50.804;7.126;2022-12-08T07:37:35;5.50;99.90
33955;DHT22;20233;50.804;7.126;2022-12-08T07:40:03;5.50;99.90
33955;DHT22;20233;50.804;7.126;2022-12-08T07:42:30;5.50;99.90
33955;DHT22;20233;50.804;7.126;2022-12-08T07:44:56;5.50;99.90
33955;DHT22;20233;50.804;7.126;2022-12-08T07:47:22;5.50;99.90
33955;DHT22;20233;50.804;7.126;2022-12-08T07:49:48;5.60;99.90
33955;DHT22;20233;50.804;7.126;2022-12-08T07:52:15;5.60;99.90
33955;DHT22;20233;50.804;7.126;2022-12-08T07:54:41;5.50;99.90
33955;DHT22;20233;50.804;7.126;2022-12-08T07:57:09;5.50;99.90
33955;DHT22;20233;50.804;7.126;2022-12-08T07:59:36;5.50;99.90
33955;DHT22;20233;50.804;7.126;2022-12-08T08:02:03;5.50;99.90
33955;DHT22;20233;50.804;7.126;2022-12-08T08:04:31;5.60;99.90
33955;DHT22;20233;50.804;7.126;2022-12-08T08:06:58;5.50;99.90
33955;DHT22;20233;50.804;7.126;2022-12-08T08:09:25;5.50;99.90
33955;DHT22;20233;50.804;7.126;2022-12-08T08:11:52;5.40;99.90
33955;DHT22;20233;50.804;7.126;2022-12-08T08:14:20;5.40;99.90
33955;DHT22;20233;50.804;7.126;2022-12-08T08:16:46;5.50;99.90
33955;DHT22;20233;50.804;7.126;2022-12-08T08:19:13;5.20;99.90
33955;DHT22;20233;50.804;7.126;2022-12-08T08:21:40;5.30;99.90
33955;DHT22;20233;50.804;7.126;2022-12-08T08:24:08;5.40;99.90
33955;DHT22;20233;50.804;7.126;2022-12-08T08:26:35;5.50;99.90
33955;DHT22;20233;50.804;7.126;2022-12-08T08:29:02;5.30;99.90
33955;DHT22;20233;50.804;7.126;2022-12-08T08:31:29;5.50;99.90
33955;DHT22;20233;50.804;7.126;2022-12-08T08:33:55;5.50;99.90
33955;DHT22;20233;50.804;7.126;2022-12-08T08:36:22;5.50;99.90
33955;DHT22;20233;50.804;7.126;2022-12-08T08:38:49;5.60;99.90
33955;DHT22;20233;50.804;7.126;2022-12-08T08:41:15;5.60;99.90
33955;DHT22;20233;50.804;7.126;2022-12-08T08:43:42;5.60;99.90
33955;DHT22;20233;50.804;7.126;2022-12-08T08:46:09;5.70;99.90
33955;DHT22;20233;50.804;7.126;2022-12-08T08:48:36;5.70;99.90
33955;DHT22;20233;50.804;7.126;2022-12-08T08:51:11;5.70;99.90
33955;DHT22;20233;50.804;7.126;2022-12-08T08:53:39;5.70;99.90
33955;DHT22;20233;50.804;7.126;2022-12-08T08:56:14;5.70;99.90
33955;DHT22;20233;50.804;7.126;2022-12-08T08:58:41;5.70;99.90
33955;DHT22;20233;50.804;7.126;2022-12-08T09:01:14;5.70;99.90
33955;DHT22;20233;50.804;7.126;2022-12-08T09:03:40;5.70;99.90
33955;DHT22;20233;50.804;7.126;2022-12-08T09:06:09;5.70;99.90
33955;DHT22;20233;50.804;7.126;2022-12-08T09:08:35;5.70;99.90
33955;DHT22;20233;50.804;7.126;2022-12-08T09:11:02;5.70;99.90
33955;DHT22;20233;50.804;7.126;2022-12-08T09:13:29;5.70;99.90
33955;DHT22;20233;50.804;7.126;2022-12-08T09:15:55;5.50;99.90
33955;DHT22;20233;50.804;7.126;2022-12-08T09:18:22;5.50;99.90
33955;DHT22;20233;50.804;7.126;2022-12-08T09:20:48;5.50;99.90
33955;DHT22;20233;50.804;7.126;2022-12-08T09:23:15;5.40;99.90
33955;DHT22;20233;50.804;7.126;2022-12-08T09:25:43;5.50;99.90
33955;DHT22;20233;50.804;7.126;2022-12-08T09:28:13;5.50;99.90
33955;DHT22;20233;50.804;7.126;2022-12-08T09:30:40;5.50;99.90
33955;DHT22;20233;50.804;7.126;2022-12-08T09:33:08;5.60;99.90
33955;DHT22;20233;50.804;7.126;2022-12-08T09:35:35;5.50;99.90
33955;DHT22;20233;50.804;7.126;2022-12-08T09:38:02;5.60;99.90
33955;DHT22;20233;50.804;7.126;2022-12-08T09:40:34;5.70;99.90
33955;DHT22;20233;50.804;7.126;2022-12-08T09:43:40;5.60;99.90
33955;DHT22;20233;50.804;7.126;2022-12-08T09:46:11;5.70;99.90
33955;DHT22;20233;50.804;7.126;2022-12-08T09:48:42;5.70;99.90
33955;DHT22;20233;50.804;7.126;2022-12-08T09:51:10;5.80;99.90
33955;DHT22;20233;50.804;7.126;2022-12-08T09:54:06;5.80;99.90
33955;DHT22;20233;50.804;7.126;2022-12-08T09:56:36;5.70;99.90
33955;DHT22;20233;50.804;7.126;2022-12-08T10:01:50;5.90;99.90
33955;DHT22;20233;50.804;7.126;2022-12-08T10:09:37;5.50;99.90
33955;DHT22;20233;50.804;7.126;2022-12-08T10:12:18;5.60;99.90
33955;DHT22;20233;50.804;7.126;2022-12-08T10:15:12;5.50;99.90
33955;DHT22;20233;50.804;7.126;2022-12-08T10:17:41;5.50;99.90
33955;DHT22;20233;50.804;7.126;2022-12-08T10:20:21;5.40;99.90
33955;DHT22;20233;50.804;7.126;2022-12-08T10:25:51;5.40;99.90
33955;DHT22;20233;50.804;7.126;2022-12-08T10:28:20;5.60;99.90
33955;DHT22;20233;50.804;7.126;2022-12-08T10:30:46;5.70;99.90
33955;DHT22;20233;50.804;7.126;2022-12-08T10:33:19;5.60;99.90
33955;DHT22;20233;50.804;7.126;2022-12-08T10:35:52;5.70;99.90
33955;DHT22;20233;50.804;7.126;2022-12-08T10:38:42;5.70;99.90
33955;DHT22;20233;50.804;7.126;2022-12-08T10:43:42;5.80;99.90
33955;DHT22;20233;50.804;7.126;2022-12-08T10:46:22;5.70;99.90
33955;DHT22;20233;50.804;7.126;2022-12-08T10:49:16;5.90;99.90
33955;DHT22;20233;50.804;7.126;2022-12-08T10:51:40;5.80;99.90
33955;DHT22;20233;50.804;7.126;2022-12-08T10:56:54;5.80;99.90
33955;DHT22;20233;50.804;7.126;2022-12-08T10:59:22;5.80;99.90
33955;DHT22;20233;50.804;7.126;2022-12-08T11:01:54;5.60;99.90
33955;DHT22;20233;50.804;7.126;2022-12-08T11:04:36;5.50;99.90
33955;DHT22;20233;50.804;7.126;2022-12-08T11:07:08;5.60;99.90
33955;DHT22;20233;50.804;7.126;2022-12-08T11:09:39;5.80;99.90
33955;DHT22;20233;50.804;7.126;2022-12-08T11:12:16;5.80;99.90
33955;DHT22;20233;50.804;7.126;2022-12-08T11:17:24;5.90;99.90
33955;DHT22;20233;50.804;7.126;2022-12-08T11:20:01;5.90;99.90
33955;DHT22;20233;50.804;7.126;2022-12-08T11:22:30;6.00;99.90
33955;DHT22;20233;50.804;7.126;2022-12-08T11:27:59;6.00;99.90
33955;DHT22;20233;50.804;7.126;2022-12-08T11:30:40;6.00;99.90
33955;DHT22;20233;50.804;7.126;2022-12-08T11:33:26;6.10;99.90
33955;DHT22;20233;50.804;7.126;2022-12-08T11:36:03;6.00;99.90
33955;DHT22;20233;50.804;7.126;2022-12-08T11:38:32;6.10;99.90
33955;DHT22;20233;50.804;7.126;2022-12-08T11:41:21;6.10;99.90
33955;DHT22;20233;50.804;7.126;2022-12-08T11:44:19;6.20;99.90
33955;DHT22;20233;50.804;7.126;2022-12-08T11:47:06;6.20;99.90
33955;DHT22;20233;50.804;7.126;2022-12-08T11:49:41;6.20;99.90
33955;DHT22;20233;50.804;7.126;2022-12-08T11:57:45;6.20;99.90
33955;DHT22;20233;50.804;7.126;2022-12-08T12:00:16;6.20;99.90
33955;DHT22;20233;50.804;7.126;2022-12-08T12:02:52;6.20;99.90
33955;DHT22;20233;50.804;7.126;2022-12-08T12:08:19;6.30;99.90
33955;DHT22;20233;50.804;7.126;2022-12-08T12:11:07;6.30;99.90
33955;DHT22;20233;50.804;7.126;2022-12-08T12:17:03;6.20;99.90
33955;DHT22;20233;50.804;7.126;2022-12-08T12:19:35;6.40;99.90
33955;DHT22;20233;50.804;7.126;2022-12-08T12:22:16;6.50;99.90
33955;DHT22;20233;50.804;7.126;2022-12-08T12:24:46;6.40;99.90
33955;DHT22;20233;50.804;7.126;2022-12-08T12:29:48;6.50;99.90
33955;DHT22;20233;50.804;7.126;2022-12-08T12:32:18;6.50;99.90
33955;DHT22;20233;50.804;7.126;2022-12-08T12:34:55;6.60;99.90
33955;DHT22;20233;50.804;7.126;2022-12-08T12:37:37;6.50;99.90
33955;DHT22;20233;50.804;7.126;2022-12-08T12:40:19;6.40;99.90
33955;DHT22;20233;50.804;7.126;2022-12-08T12:43:11;6.50;99.90
33955;DHT22;20233;50.804;7.126;2022-12-08T12:45:39;6.40;99.90
33955;DHT22;20233;50.804;7.126;2022-12-08T12:50:45;6.40;99.90
33955;DHT22;20233;50.804;7.126;2022-12-08T12:55:57;6.30;99.90
33955;DHT22;20233;50.804;7.126;2022-12-08T13:03:39;6.30;99.90
33955;DHT22;20233;50.804;7.126;2022-12-08T13:06:06;6.40;99.90
33955;DHT22;20233;50.804;7.126;2022-12-08T13:08:39;6.30;99.90
33955;DHT22;20233;50.804;7.126;2022-12-08T13:11:09;6.40;99.90
33955;DHT22;20233;50.804;7.126;2022-12-08T13:13:56;6.30;99.90
33955;DHT22;20233;50.804;7.126;2022-12-08T13:16:25;6.30;99.90
33955;DHT22;20233;50.804;7.126;2022-12-08T13:18:57;6.30;99.90
33955;DHT22;20233;50.804;7.126;2022-12-08T13:21:38;6.30;99.90
33955;DHT22;20233;50.804;7.126;2022-12-08T13:29:37;6.40;99.90
33955;DHT22;20233;50.804;7.126;2022-12-08T13:34:40;6.30;99.90
33955;DHT22;20233;50.804;7.126;2022-12-08T13:37:24;6.30;99.90
33955;DHT22;20233;50.804;7.126;2022-12-08T13:39:56;6.40;99.90
33955;DHT22;20233;50.804;7.126;2022-12-08T13:47:47;6.40;99.90
33955;DHT22;20233;50.804;7.126;2022-12-08T13:50:26;6.20;99.90
33955;DHT22;20233;50.804;7.126;2022-12-08T13:53:04;6.00;99.90
33955;DHT22;20233;50.804;7.126;2022-12-08T13:55:41;6.10;99.90
33955;DHT22;20233;50.804;7.126;2022-12-08T13:58:33;6.00;99.90
33955;DHT22;20233;50.804;7.126;2022-12-08T14:01:18;6.10;99.90
33955;DHT22;20233;50.804;7.126;2022-12-08T14:03:55;6.10;99.90
33955;DHT22;20233;50.804;7.126;2022-12-08T14:06:38;6.40;99.90
33955;DHT22;20233;50.804;7.126;2022-12-08T14:09:17;6.30;99.90
33955;DHT22;20233;50.804;7.126;2022-12-08T14:12:15;6.40;99.90
33955;DHT22;20233;50.804;7.126;2022-12-08T14:14:45;6.40;99.90
33955;DHT22;20233;50.804;7.126;2022-12-08T14:17:17;6.40;99.90
33955;DHT22;20233;50.804;7.126;2022-12-08T14:19:44;6.40;99.90
33955;DHT22;20233;50.804;7.126;2022-12-08T14:22:17;6.50;99.90
33955;DHT22;20233;50.804;7.126;2022-12-08T14:24:46;6.50;99.90
33955;DHT22;20233;50.804;7.126;2022-12-08T14:27:19;6.40;99.90
33955;DHT22;20233;50.804;7.126;2022-12-08T14:29:50;6.40;99.90
33955;DHT22;20233;50.804;7.126;2022-12-08T14:37:45;6.30;99.90
33955;DHT22;20233;50.804;7.126;2022-12-08T14:42:49;6.30;99.90
33955;DHT22;20233;50.804;7.126;2022-12-08T14:45:18;6.30;99.90
33955;DHT22;20233;50.804;7.126;2022-12-08T14:47:45;6.20;99.90
33955;DHT22;20233;50.804;7.126;2022-12-08T14:50:37;6.30;99.90
33955;DHT22;20233;50.804;7.126;2022-12-08T14:53:15;6.30;99.90
33955;DHT22;20233;50.804;7.126;2022-12-08T14:55:45;6.30;99.90
33955;DHT22;20233;50.804;7.126;2022-12-08T14:58:28;6.20;99.90
33955;DHT22;20233;50.804;7.126;2022-12-08T15:00:57;6.10;99.90
33955;DHT22;20233;50.804;7.126;2022-12-08T15:03:30;6.20;99.90
33955;DHT22;20233;50.804;7.126;2022-12-08T15:06:04;6.20;99.90
33955;DHT22;20233;50.804;7.126;2022-12-08T15:08:33;6.20;99.90
33955;DHT22;20233;50.804;7.126;2022-12-08T15:13:51;6.20;99.90
33955;DHT22;20233;50.804;7.126;2022-12-08T15:16:40;6.20;99.90
33955;DHT22;20233;50.804;7.126;2022-12-08T15:19:18;6.10;99.90
33955;DHT22;20233;50.804;7.126;2022-12-08T15:21:58;6.10;99.90
33955;DHT22;20233;50.804;7.126;2022-12-08T15:24:33;6.20;99.90
33955;DHT22;20233;50.804;7.126;2022-12-08T15:27:01;6.10;99.90
33955;DHT22;20233;50.804;7.126;2022-12-08T15:29:29;6.10;99.90
33955;DHT22;20233;50.804;7.126;2022-12-08T15:31:59;6.00;99.90
33955;DHT22;20233;50.804;7.126;2022-12-08T15:34:26;6.00;99.90
33955;DHT22;20233;50.804;7.126;2022-12-08T15:36:54;6.00;99.90
33955;DHT22;20233;50.804;7.126;2022-12-08T15:39:33;6.00;99.90
33955;DHT22;20233;50.804;7.126;2022-12-08T15:42:03;6.00;99.90
33955;DHT22;20233;50.804;7.126;2022-12-08T15:44:29;6.00;99.90
33955;DHT22;20233;50.804;7.126;2022-12-08T15:46:58;5.90;99.90
33955;DHT22;20233;50.804;7.126;2022-12-08T15:49:25;5.90;99.90
33955;DHT22;20233;50.804;7.126;2022-12-08T15:51:53;5.90;99.90
33955;DHT22;20233;50.804;7.126;2022-12-08T15:54:21;5.90;99.90
33955;DHT22;20233;50.804;7.126;2022-12-08T15:56:53;5.80;99.90
33955;DHT22;20233;50.804;7.126;2022-12-08T15:59:23;5.90;99.90
33955;DHT22;20233;50.804;7.126;2022-12-08T16:01:51;5.90;99.90
33955;DHT22;20233;50.804;7.126;2022-12-08T16:04:20;5.90;99.90
33955;DHT22;20233;50.804;7.126;2022-12-08T16:06:52;5.90;99.90
33955;DHT22;20233;50.804;7.126;2022-12-08T16:09:19;5.90;99.90
33955;DHT22;20233;50.804;7.126;2022-12-08T16:11:49;5.80;99.90
33955;DHT22;20233;50.804;7.126;2022-12-08T16:14:33;5.80;99.90
33955;DHT22;20233;50.804;7.126;2022-12-08T16:16:59;5.70;99.90
33955;DHT22;20233;50.804;7.126;2022-12-08T16:19:26;5.70;99.90
33955;DHT22;20233;50.804;7.126;2022-12-08T16:21:52;5.70;99.90
33955;DHT22;20233;50.804;7.126;2022-12-08T16:24:19;5.70;99.90
33955;DHT22;20233;50.804;7.126;2022-12-08T16:26:46;5.70;99.90
33955;DHT22;20233;50.804;7.126;2022-12-08T16:29:22;5.60;99.90
33955;DHT22;20233;50.804;7.126;2022-12-08T16:31:49;5.60;99.90
33955;DHT22;20233;50.804;7.126;2022-12-08T16:34:16;5.60;99.90
33955;DHT22;20233;50.804;7.126;2022-12-08T16:36:43;5.60;99.90
33955;DHT22;20233;50.804;7.126;2022-12-08T16:39:11;5.50;99.90
33955;DHT22;20233;50.804;7.126;2022-12-08T16:41:40;5.50;99.90
33955;DHT22;20233;50.804;7.126;2022-12-08T16:44:25;5.50;99.90
33955;DHT22;20233;50.804;7.126;2022-12-08T16:46:52;5.50;99.90
33955;DHT22;20233;50.804;7.126;2022-12-08T16:49:19;5.40;99.90
33955;DHT22;20233;50.804;7.126;2022-12-08T16:51:45;5.40;99.90
33955;DHT22;20233;50.804;7.126;2022-12-08T16:54:11;5.20;99.90
33955;DHT22;20233;50.804;7.126;2022-12-08T16:56:37;5.20;99.90
33955;DHT22;20233;50.804;7.126;2022-12-08T16:59:04;5.20;99.90
33955;DHT22;20233;50.804;7.126;2022-12-08T17:01:30;5.30;99.90
33955;DHT22;20233;50.804;7.126;2022-12-08T17:03:57;5.10;99.90
33955;DHT22;20233;50.804;7.126;2022-12-08T17:06:24;5.10;99.90
33955;DHT22;20233;50.804;7.126;2022-12-08T17:08:50;5.00;99.90
33955;DHT22;20233;50.804;7.126;2022-12-08T17:11:22;5.10;99.90
33955;DHT22;20233;50.804;7.126;2022-12-08T17:13:49;5.10;99.90
33955;DHT22;20233;50.804;7.126;2022-12-08T17:16:17;5.00;99.90
33955;DHT22;20233;50.804;7.126;2022-12-08T17:18:45;4.90;99.90
33955;DHT22;20233;50.804;7.126;2022-12-08T17:21:14;4.90;99.90
33955;DHT22;20233;50.804;7.126;2022-12-08T17:23:40;4.90;99.90
33955;DHT22;20233;50.804;7.126;2022-12-08T17:26:07;4.90;99.90
33955;DHT22;20233;50.804;7.126;2022-12-08T17:28:34;4.80;99.90
33955;DHT22;20233;50.804;7.126;2022-12-08T17:31:00;4.80;99.90
33955;DHT22;20233;50.804;7.126;2022-12-08T17:33:28;4.80;99.90
33955;DHT22;20233;50.804;7.126;2022-12-08T17:35:54;4.70;99.90
33955;DHT22;20233;50.804;7.126;2022-12-08T17:38:21;4.60;99.90
33955;DHT22;20233;50.804;7.126;2022-12-08T17:40:48;4.60;99.90
33955;DHT22;20233;50.804;7.126;2022-12-08T17:43:15;4.60;99.90
33955;DHT22;20233;50.804;7.126;2022-12-08T17:45:42;4.50;99.90
33955;DHT22;20233;50.804;7.126;2022-12-08T17:48:09;4.50;99.90
33955;DHT22;20233;50.804;7.126;2022-12-08T17:50:43;4.40;99.90